Amougies Airfield

EBAM · Hainaut, Wallonia, 比利时

METAR的历史 EBAM · Amougies Airfield

下面你可以看到过去几天的METARs。 选择年份以浏览从2007年开始的旧METAR。

2024年7月15日

时间 代码 天气 温度 能见度 天花板 METAR/SPECI
00:25
V
15 °C 10 km+ 22.000 ft 190° 190° 5 kt METAR EBCV 142225Z AUTO 19005KT 9999 FEW110/// BKN220/// 15/12 Q1013 BLU

2024年7月14日

时间 代码 天气 温度 能见度 天花板 METAR/SPECI
23:55
V
15 °C 10 km+ 21.000 ft 190° 190° 4 kt METAR EBCV 142155Z AUTO 19004KT 9999 FEW120/// BKN210/// 15/12 Q1013 BLU
23:25
V
17 °C 10 km+ 22.000 ft 180° 180° 5 kt METAR EBCV 142125Z AUTO 18005KT 9999 FEW110/// BKN220/// 17/13 Q1013 BLU
22:55
V
16 °C 10 km+ 22.000 ft 190° 190° 4 kt METAR EBCV 142055Z AUTO 19004KT 9999 FEW120/// BKN220/// 16/13 Q1013 BLU
22:25
V
17 °C 10 km+ 22.000 ft 190° 190° 3 kt METAR EBCV 142025Z AUTO 19003KT 9999 FEW049/// SCT120/// BKN220/// 17/14 Q1013 BLU
21:55
V
18 °C 10 km+ 11.000 ft Var Var 2 kt METAR EBCV 141955Z AUTO VRB02KT 9999 SCT048/// BKN110/// BKN220/// 18/14 Q1013 BLU
21:25
V
19 °C 10 km+ 14.000 ft Var Var 2 kt METAR EBCV 141925Z AUTO VRB02KT 9999 FEW110/// BKN140/// BKN220/// 19/14 Q1013 BLU
20:55
V
20 °C 10 km+ 4.800 ft 200° 200° 3 kt METAR EBCV 141855Z AUTO 20003KT 9999 BKN048/// BKN110/// 20/13 Q1012 BLU
20:25
V
21 °C 10 km+ 7.000 ft Var Var 2 kt METAR EBCV 141825Z AUTO VRB02KT 9999 SCT048/// BKN070/// BKN110/// 21/13 Q1012 BLU
19:55
V
22 °C 10 km+ 15.000 ft 230° 230° 3 kt METAR EBCV 141755Z AUTO 23003KT 9999 FEW100/// BKN150/// BKN220/// 22/11 Q1012 BLU
19:25
V
22 °C 10 km+ 15.000 ft 260° 260° 5 kt METAR EBCV 141725Z AUTO 26005KT 9999 FEW050/// BKN150/// 22/12 Q1012 BLU
18:55
V
22 °C 10 km+ 17.000 ft 270° 270° 4 kt METAR EBCV 141655Z AUTO 27004KT 9999 FEW065/// SCT130/// BKN170/// 22/12 Q1012 BLU
18:25
V
21 °C 10 km+ 7.000 ft 260° 260° 3 kt METAR EBCV 141625Z AUTO 26003KT 9999 SCT055/// BKN070/// BKN170/// 21/11 Q1013 BLU
17:55
V
21 °C 10 km+ 17.000 ft 250° 250° 3 kt METAR EBCV 141555Z AUTO 25003KT 9999 BKN170/// 21/12 Q1012 BLU
17:25
V
21 °C 10 km+ 18.000 ft 260° 260° 5 kt METAR EBCV 141525Z AUTO 26005KT 9999 BKN180/// 21/11 Q1012 BLU
16:55
V
21 °C 10 km+ 20.000 ft 250° 250° 6 kt METAR EBCV 141455Z AUTO 25006KT 9999 FEW070/// BKN200/// 21/11 Q1013 BLU
16:25
V
22 °C 10 km+ 18.000 ft 250° 250° 5 kt METAR EBCV 141425Z AUTO 25005KT 9999 BKN180/// 22/11 Q1013 BLU
15:55
V
21 °C 10 km+ 19.000 ft 260° 260° 6 kt METAR EBCV 141355Z AUTO 26006KT 9999 BKN190/// 21/12 Q1013 BLU
15:25
V
21 °C 10 km+ 20.000 ft 260° 260° 8 kt METAR EBCV 141325Z AUTO 26008KT 9999 FEW060/// BKN200/// 21/11 Q1013 BLU
14:55
V
21 °C 10 km+ 20.000 ft 250° 250° 8 kt METAR EBCV 141255Z AUTO 25008KT 9999 SCT049/// BKN200/// 21/11 Q1013 BLU
14:25
V
22 °C 10 km+ - 230° 230° 9 kt METAR EBCV 141225Z AUTO 23009KT 9999 FEW049/// 22/11 Q1013 BLU
13:55
V
22 °C 10 km+ - 250° 250° 7 kt METAR EBCV 141155Z AUTO 25007KT 9999 FEW043/// 22/12 Q1013 BLU
13:25
V
21 °C 10 km+ - 260° 260° 7 kt METAR EBCV 141125Z AUTO 26007KT 9999 FEW041/// 21/12 Q1013 BLU
12:55
V
20 °C 10 km+ - 250° 250° 6 kt METAR EBCV 141055Z AUTO 25006KT 9999 FEW044/// SCT150/// 20/12 Q1013 BLU
12:25
V
20 °C 10 km+ - 240° 240° 7 kt METAR EBCV 141025Z AUTO 24007KT 9999 FEW035/// SCT220/// 20/12 Q1013 BLU
11:55
V
19 °C 10 km+ - 230° 230° 7 kt METAR EBCV 140955Z AUTO 23007KT 9999 FEW032/// SCT150/// 19/12 Q1013 BLU
11:25
V
19 °C 10 km+ 22.000 ft 240° 240° 6 kt METAR EBCV 140925Z AUTO 24006KT 9999 FEW110/// SCT150/// BKN220/// 19/12 Q1013 BLU
10:55
V
18 °C 10 km+ 22.000 ft 220° 220° 6 kt METAR EBCV 140855Z AUTO 22006KT 9999 FEW110/// SCT150/// BKN220/// 18/12 Q1013 BLU
10:25
V
18 °C 10 km+ 21.000 ft 210° 210° 6 kt METAR EBCV 140825Z AUTO 21006KT 9999 FEW110/// SCT150/// BKN210/// 18/12 Q1013 BLU
09:55
V
17 °C 10 km+ 22.000 ft 210° 210° 5 kt METAR EBCV 140755Z AUTO 21005KT 9999 FEW120/// SCT150/// BKN220/// 17/11 Q1013 BLU
09:25
V
17 °C 10 km+ 21.000 ft 220° 220° 5 kt METAR EBCV 140725Z AUTO 22005KT 9999 FEW120/// BKN210/// 17/12 Q1013 BLU
08:55
V
16 °C 10 km+ 22.000 ft 220° 220° 5 kt METAR EBCV 140655Z AUTO 22005KT 9999 FEW120/// BKN220/// 16/11 Q1013 BLU
08:25
V
16 °C 10 km+ 21.000 ft 190° 190° 4 kt METAR EBCV 140625Z AUTO 19004KT 9999 FEW110/// BKN210/// 16/14 Q1013 BLU
07:55
V
15 °C 10 km+ 22.000 ft 180° 180° 5 kt METAR EBCV 140555Z AUTO 18005KT 9999 FEW110/// BKN220/// 15/13 Q1013 BLU
07:25
V
13 °C 10 km+ 22.000 ft 180° 180° 4 kt METAR EBCV 140525Z AUTO 18004KT 9999 FEW110/// BKN220/// 13/13 Q1013 BLU
06:55
V
12 °C 10 km+ 22.000 ft 190° 190° 3 kt METAR EBCV 140455Z AUTO 19003KT 9999 FEW029/// SCT150/// BKN220/// 12/12 Q1013 BLU
06:25
V
12 °C 10 km+ 22.000 ft Var Var 2 kt METAR EBCV 140425Z AUTO VRB02KT 9999 FEW120/// BKN220/// 12/11 Q1013 BLU
05:55
V
12 °C 10 km+ 22.000 ft 180° 180° 3 kt METAR EBCV 140355Z AUTO 18003KT 9999 FEW100/// SCT150/// BKN220/// 12/11 Q1013 BLU
05:25
V
12 °C 10 km+ 11.000 ft 180° 180° 3 kt METAR EBCV 140325Z AUTO 18003KT 9999 BKN110/// OVC130/// 12/11 Q1013 BLU
04:55
V
12 °C 10 km+ 12.000 ft 200° 200° 3 kt METAR EBCV 140255Z AUTO 20003KT 9999 BKN120/// 12/12 Q1012 BLU
04:25
V
13 °C 10 km+ 12.000 ft Var Var 2 kt METAR EBCV 140225Z AUTO VRB02KT 9999 BKN120/// BKN220/// 13/12 Q1012 BLU
03:55
V
13 °C 10 km+ 11.000 ft 240° 240° 3 kt METAR EBCV 140155Z AUTO 24003KT 9999 FEW085/// SCT100/// BKN110/// 13/12 Q1013 BLU
03:25
V
13 °C 10 km+ 12.000 ft Var Var 2 kt METAR EBCV 140125Z AUTO VRB02KT 9999 FEW085/// SCT100/// BKN120/// 13/12 Q1013 BLU
02:55
V
13 °C 10 km+ 12.000 ft 200° 200° 4 kt METAR EBCV 140055Z AUTO 20004KT 9999 FEW085/// SCT100/// BKN120/// 13/12 Q1013 BLU
02:25
V
13 °C 10 km+ 14.000 ft 190° 190° 4 kt METAR EBCV 140025Z AUTO 19004KT 9999 FEW090/// BKN140/// 13/12 Q1013 BLU
01:55
V
13 °C 10 km+ 14.000 ft 190° 190° 4 kt METAR EBCV 132355Z AUTO 19004KT 9999 FEW100/// SCT130/// BKN140/// 13/12 Q1013 BLU
01:25
V
13 °C 10 km+ 14.000 ft 190° 190° 4 kt METAR EBCV 132325Z AUTO 19004KT 9999 FEW120/// BKN140/// 13/12 Q1013 BLU
00:55
V
14 °C 10 km+ 14.000 ft Var Var 1 kt METAR EBCV 132255Z AUTO VRB01KT 9999 BKN140/// 14/13 Q1013 BLU
00:25
V
14 °C 10 km+ 15.000 ft Var Var 1 kt METAR EBCV 132225Z AUTO VRB01KT 9999 BKN150/// 14/12 Q1013 BLU

2024年7月13日

时间 代码 天气 温度 能见度 天花板 METAR/SPECI
23:55
V
13 °C 10 km+ 15.000 ft Var Var 2 kt METAR EBCV 132155Z AUTO VRB02KT 9999 FEW055/// BKN150/// 13/12 Q1013 BLU
23:25
V
14 °C 10 km+ 12.000 ft 360° 360° 0 kt METAR EBCV 132125Z AUTO 00000KT 9999 SCT049/// BKN120/// BKN220/// 14/13 Q1013 BLU
22:55
V
14 °C 10 km+ 15.000 ft Var Var 2 kt METAR EBCV 132055Z AUTO VRB02KT 9999 SCT046/// BKN150/// 14/12 Q1013 BLU
22:25
V
14 °C 10 km+ 15.000 ft Var Var 1 kt METAR EBCV 132025Z AUTO VRB01KT 9999 FEW110/// SCT130/// BKN150/// 14/12 Q1013 BLU
21:55
V
16 °C 10 km+ 21.000 ft Var Var 2 kt METAR EBCV 131955Z AUTO VRB02KT 9999 FEW120/// BKN210/// 16/11 Q1013 BLU
21:25
V
17 °C 10 km+ 15.000 ft Var Var 2 kt METAR EBCV 131925Z AUTO VRB02KT 9999 BKN150/// BKN220/// 17/12 Q1013 BLU
20:55
V
18 °C 10 km+ 15.000 ft Var Var 2 kt METAR EBCV 131855Z AUTO VRB02KT 9999 FEW100/// BKN150/// BKN220/// 18/12 Q1013 BLU
20:25
V
18 °C 10 km+ 21.000 ft 320° 320° 5 kt METAR EBCV 131825Z AUTO 32005KT 9999 FEW110/// SCT150/// BKN210/// 18/11 Q1013 BLU
19:55
V
19 °C 10 km+ 15.000 ft 320° 320° 5 kt METAR EBCV 131755Z AUTO 32005KT 9999 BKN150/// 19/11 Q1013 BLU
19:25
V
19 °C 10 km+ 15.000 ft 310° 310° 6 kt METAR EBCV 131725Z AUTO 31006KT 9999 BKN150/// 19/10 Q1013 BLU
18:55
V
19 °C 10 km+ 7.500 ft 310° 310° 5 kt METAR EBCV 131655Z AUTO 31005KT 9999 SCT045/// BKN075/// 19/11 Q1013 BLU
18:25
V
19 °C 10 km+ - 300° 300° 6 kt METAR EBCV 131625Z AUTO 30006KT 9999 SCT047/// 19/11 Q1013 BLU
17:55
V
19 °C 10 km+ - 290° 290° 7 kt METAR EBCV 131555Z AUTO 29007KT 9999 FEW043/// 19/11 Q1013 BLU
17:25
V
20 °C 10 km+ - 260° 260° 9 kt METAR EBCV 131525Z AUTO 26009KT 9999 FEW042/// 20/10 Q1013 BLU
16:55
V
20 °C 10 km+ - 260° 260° 10 - 20 kt METAR EBCV 131455Z AUTO 26010G20KT 9999 /// 20/10 Q1013 BLU
16:25
V
20 °C 10 km+ - 280° 280° 6 kt METAR EBCV 131425Z AUTO 28006KT 9999 /// 20/12 Q1013 BLU
15:55
V
19 °C 10 km+ - 280° 280° 8 kt METAR EBCV 131355Z AUTO 28008KT 9999 /// 19/11 Q1013 BLU
15:25
V
19 °C 10 km+ - 280° 280° 10 kt METAR EBCV 131325Z AUTO 28010KT 9999 /// 19/11 Q1013 BLU
14:55
V
19 °C 10 km+ 7.500 ft 290° 290° 8 kt METAR EBCV 131255Z AUTO 29008KT 9999 FEW032/// SCT049/// BKN075/// 19/12 Q1013 BLU
14:25
V
19 °C 10 km+ - 230° 230° 10 kt METAR EBCV 131225Z AUTO 23010KT 9999 /// 19/11 Q1013 BLU
13:55
V
18 °C 10 km+ - 230° 230° 10 kt METAR EBCV 131155Z AUTO 23010KT 9999 /// 18/11 Q1014 BLU
13:25
V
18 °C 10 km+ - 230° 230° 10 kt METAR EBCV 131125Z AUTO 23010KT 9999 /// 18/11 Q1014 BLU
12:55
V
17 °C 10 km+ - 250° 250° 10 kt METAR EBCV 131055Z AUTO 25010KT 9999 /// 17/11 Q1014 BLU
12:25
V
18 °C 10 km+ - 250° 250° 10 kt METAR EBCV 131025Z AUTO 25010KT 9999 /// 18/11 Q1014 BLU
11:55
V
17 °C 10 km+ - 240° 240° 9 kt METAR EBCV 130955Z AUTO 24009KT 9999 /// 17/11 Q1013 BLU
11:25
V
17 °C 10 km+ - 250° 250° 9 kt METAR EBCV 130925Z AUTO 25009KT 9999 /// 17/11 Q1014 BLU
10:55
V
16 °C 10 km+ - 250° 250° 9 kt METAR EBCV 130855Z AUTO 25009KT 9999 /// 16/11 Q1014 BLU
10:43
V
16 °C 10 km+ - 250° 250° 9 kt SPECI EBCV 130843Z AUTO 25009KT 9999 /// 16/12 Q1014 BLU
10:25
M
15 °C 10 km+ 3.000 ft 250° 250° 9 kt METAR EBCV 130825Z AUTO 25009KT 9999 FEW016/// SCT024/// BKN030/// 15/12 Q1014 WHT
10:13
V
15 °C 10 km+ - 250° 250° 8 kt SPECI EBCV 130813Z AUTO 25008KT 9999 /// 15/11 Q1014 BLU
09:55
V
15 °C 10 km+ - 250° 250° 7 kt METAR EBCV 130755Z AUTO 25007KT 9999 SCT014/// 15/11 Q1014 GRN
09:47
M
15 °C 10 km+ 1.800 ft 260° 260° 7 kt SPECI EBCV 130747Z AUTO 26007KT 9999 SCT014/// BKN018/// 15/12 Q1014 GRN
09:25
V
14 °C 10 km+ - 250° 250° 7 kt METAR EBCV 130725Z AUTO 25007KT 9999 /// 14/12 Q1014 BLU
08:55
V
14 °C 10 km+ - 260° 260° 8 kt METAR EBCV 130655Z AUTO 26008KT 9999 /// 14/11 Q1014 BLU
08:25
V
13 °C 10 km+ - 240° 240° 8 kt METAR EBCV 130625Z AUTO 24008KT 9999 /// 13/11 Q1014 BLU
07:55
V
13 °C 10 km+ - 240° 240° 6 kt METAR EBCV 130555Z AUTO 24006KT 9999 /// 13/11 Q1014 BLU
07:25
V
12 °C 10 km+ - 240° 240° 5 kt METAR EBCV 130525Z AUTO 24005KT 9999 /// 12/11 Q1014 BLU
06:55
V
11 °C 10 km+ - 240° 240° 5 kt METAR EBCV 130455Z AUTO 24005KT 9999 /// 11/10 Q1014 BLU
06:25
V
11 °C 10 km+ - 230° 230° 6 kt METAR EBCV 130425Z AUTO 23006KT 9999 /// 11/10 Q1014 BLU
05:55
V
10 °C 10 km+ - 230° 230° 5 kt METAR EBCV 130355Z AUTO 23005KT 9999 /// 10/10 Q1014 BLU
05:25
V
11 °C 10 km+ 15.000 ft 230° 230° 5 kt METAR EBCV 130325Z AUTO 23005KT 9999 FEW024/// BKN150/// 11/10 Q1014 BLU
04:55
V
10 °C 10 km+ 15.000 ft 220° 220° 5 kt METAR EBCV 130255Z AUTO 22005KT 9999 FEW027/// SCT120/// BKN150/// 10/10 Q1014 BLU
04:25
V
11 °C 10 km+ - 220° 220° 5 kt METAR EBCV 130225Z AUTO 22005KT 9999 /// 11/10 Q1014 BLU
03:55
V
11 °C 10 km+ - 230° 230° 5 kt METAR EBCV 130155Z AUTO 23005KT 9999 /// 11/10 Q1014 BLU
03:25
V
11 °C 10 km+ - 240° 240° 5 kt METAR EBCV 130125Z AUTO 24005KT 9999 /// 11/10 Q1014 BLU
02:55
V
11 °C 10 km+ - 250° 250° 5 kt METAR EBCV 130055Z AUTO 25005KT 9999 /// 11/10 Q1014 BLU
02:25
V
11 °C 10 km+ - 240° 240° 6 kt METAR EBCV 130025Z AUTO 24006KT 9999 /// 11/10 Q1014 BLU
01:55
V
11 °C 10 km+ - 220° 220° 5 kt METAR EBCV 122355Z AUTO 22005KT 9999 /// 11/10 Q1014 BLU
01:25
V
11 °C 10 km+ 15.000 ft 230° 230° 4 kt METAR EBCV 122325Z AUTO 23004KT 9999 BKN150/// 11/10 Q1014 BLU
00:55
V
11 °C 10 km+ 15.000 ft 240° 240° 4 kt METAR EBCV 122255Z AUTO 24004KT 9999 BKN150/// 11/10 Q1014 BLU
00:25
V
11 °C 10 km+ 15.000 ft 260° 260° 3 kt METAR EBCV 122225Z AUTO 26003KT 9999 BKN150/// 11/10 Q1014 BLU

2024年7月12日

时间 代码 天气 温度 能见度 天花板 METAR/SPECI
23:55
V
11 °C 10 km+ 15.000 ft 300° 300° 4 kt METAR EBCV 122155Z AUTO 30004KT 9999 BKN150/// 11/10 Q1014 BLU
23:25
V
12 °C 10 km+ 15.000 ft 300° 300° 5 kt METAR EBCV 122125Z AUTO 30005KT 9999 FEW130/// BKN150/// 12/11 Q1015 BLU
22:55
V
13 °C 10 km+ 4.500 ft 310° 310° 6 kt METAR EBCV 122055Z AUTO 31006KT 9999 BKN045/// 13/11 Q1015 BLU
22:25
V
14 °C 10 km+ - 300° 300° 5 kt METAR EBCV 122025Z AUTO 30005KT 9999 /// 14/11 Q1015 BLU
21:55
V
14 °C 10 km+ - 310° 310° 5 kt METAR EBCV 121955Z AUTO 31005KT 9999 /// 14/12 Q1015 BLU
21:25
V
14 °C 10 km+ - 310° 310° 7 kt METAR EBCV 121925Z AUTO 31007KT 9999 /// 14/11 Q1014 BLU
20:55
V
14 °C 10 km+ - 330° 330° 7 kt METAR EBCV 121855Z AUTO 33007KT 9999 /// 14/11 Q1014 BLU
20:25
V
15 °C 10 km+ - 320° 320° 7 kt METAR EBCV 121825Z AUTO 32007KT 9999 /// 15/11 Q1014 BLU
19:55
V
15 °C 10 km+ - 320° 320° 6 kt METAR EBCV 121755Z AUTO 32006KT 9999 /// 15/11 Q1014 BLU
19:25
V
17 °C 10 km+ - 330° 330° 8 kt METAR EBCV 121725Z AUTO 33008KT 9999 /// 17/12 Q1014 BLU
18:55
V
16 °C 10 km+ - 330° 330° 9 kt METAR EBCV 121655Z AUTO 33009KT 9999 /// 16/11 Q1014 BLU
18:25
V
16 °C 10 km+ - 340° 340° 8 kt METAR EBCV 121625Z AUTO 34008KT 9999 /// 16/13 Q1014 BLU
17:55
V
16 °C 10 km+ - 350° 350° 9 kt METAR EBCV 121555Z AUTO 35009KT 9999 /// 16/13 Q1014 BLU
17:25
V
16 °C 10 km+ - 330° 330° 8 kt METAR EBCV 121525Z AUTO 33008KT 9999 /// 16/13 Q1014 BLU
16:55
V
15 °C 10 km+ - 350° 350° 9 kt METAR EBCV 121455Z AUTO 35009KT 9999 /// 15/14 Q1014 BLU
16:25
V
15 °C 10 km+ - 340° 340° 9 kt METAR EBCV 121425Z AUTO 34009KT 9999 -RA /// 15/14 Q1014 BLU
16:14
V
15 °C 10 km+ - 360° 360° 7 kt SPECI EBCV 121414Z AUTO 36007KT 9999 DZ /// 15/14 Q1014 BLU
15:55
V
14 °C 10 km+ 3.300 ft 350° 350° 9 kt METAR EBCV 121355Z AUTO 35009KT 9999 -DZRA FEW005/// SCT016/// BKN033/// 14/13 Q1014 WHT
15:45
M
14 °C 6 km 1.400 ft 330° 330° 12 kt SPECI EBCV 121345Z AUTO 33012KT 6000 FEW008/// BKN014/// BKN027/// 14/14 Q1014 GRN
15:25
V
16 °C 10 km+ 4.600 ft 330° 330° 6 kt METAR EBCV 121325Z AUTO 33006KT 9999 FEW013/// SCT022/// BKN046/// 16/14 Q1013 WHT
14:55
V
16 °C 10 km+ - 320° 320° 8 kt METAR EBCV 121255Z AUTO 32008KT 9999 /// 16/14 Q1013 BLU
14:25
V
16 °C 10 km+ - 330° 330° 8 kt METAR EBCV 121225Z AUTO 33008KT 9999 /// 16/14 Q1013 BLU
13:55
V
16 °C 10 km+ - 360° 360° 6 kt METAR EBCV 121155Z AUTO 36006KT 9999 /// 16/14 Q1013 BLU
13:25
V
16 °C 10 km+ - 360° 360° 6 kt METAR EBCV 121125Z AUTO 36006KT 9999 /// 16/14 Q1013 BLU
12:55
V
16 °C 10 km+ - 010° 010° 9 kt METAR EBCV 121055Z AUTO 01009KT 9999 /// 16/15 Q1013 BLU
12:25
V
16 °C 10 km+ - 360° 360° 7 kt METAR EBCV 121025Z AUTO 36007KT 9999 -RA /// 16/15 Q1013 BLU
11:55
V
0 °C 10 km+ - 010° 010° 11 kt METAR EBCV 120955Z AUTO 01011KT 9999 -RA /// ///// Q1012 BLU
11:43
V
0 °C 10 km+ - 350° 350° 9 kt SPECI EBCV 120943Z AUTO 35009KT 9999 DZ /// ///// Q1012 BLU
11:25
M
0 °C 5 km - 350° 350° 8 kt METAR EBCV 120925Z AUTO 35008KT 5000 -RA /// ///// Q1012 WHT
10:55
M
0 °C 5 km - 360° 360° 9 kt METAR EBCV 120855Z AUTO 36009KT 5000 -RA /// ///// Q1012 WHT
10:40
I
0 °C 4,9 km - 350° 350° 9 kt SPECI EBCV 120840Z AUTO 35009KT 4900 -RA /// ///// Q1012 GRN
10:25
M
0 °C 7 km - 360° 360° 10 kt METAR EBCV 120825Z AUTO 36010KT 7000 -RA /// ///// Q1012 WHT
10:15
M
0 °C 7 km - 360° 360° 10 kt SPECI EBCV 120815Z AUTO 36010KT 7000 -RA /// ///// Q1012 WHT
09:55
V
0 °C 10 km+ - 360° 360° 10 kt METAR EBCV 120755Z AUTO 36010KT 9999 -RA /// ///// Q1011 BLU
09:25
V
14 °C 8 km - 360° 360° 10 kt METAR EBCV 120725Z AUTO 36010KT 8000 -RA /// 14/14 Q1011 BLU
09:20
M
14 °C 7 km - 360° 360° 9 kt SPECI EBCV 120720Z AUTO 36009KT 7000 -RA /// 14/14 Q1011 WHT
08:55
I
14 °C 3,3 km 700 ft 360° 360° 10 kt METAR EBCV 120655Z AUTO 36010KT 3300 RA SCT004/// BKN007/// 14/14 Q1011 YLO
08:25
I
14 °C 3,5 km 2.200 ft 340° 340° 9 kt METAR EBCV 120625Z AUTO 34009KT 3500 -RA FEW004/// SCT006/// BKN022/// 14/14 Q1012 YLO
07:55
I
14 °C 2,6 km - 350° 350° 8 kt METAR EBCV 120555Z AUTO 35008KT 2600 RA /// 14/14 Q1012 YLO
报告变更